Terminal Aerodrome Forecast
Issued by NWS

Home | Current Version | Previous Version | Text Only | Print | Product List | Glossary Off
Versions: 1 2 3 4 5 6 7 8 9 10 11 12 13 14 15 16 17 18 19 20 21 22 23 24 25 26 27 28

000
FTUS43 KABR 150749 AAB
TAFMBG
TAF AMD
KMBG 150749Z 1508/1606 13007KT P6SM -TSRA SCT070CB BKN130
     FM151400 13010KT P6SM VCTS OVC030CB
     FM151800 14011KT P6SM -SHRA VCTS OVC025CB
     FM160000 09008KT P6SM BKN030=

USA.gov is the U.S. government's official web portal to all federal, state and local government web resources and services.